Time;durP1;ratioP1;P1;durP2;ratioP2;P2;SDS_P1;SDS_P2;PMS_P1;PMS_P2;Temp;Humidity;BMP_temperature;BMP_pressure;BME280_temperature;BME280_humidity;BME280_pressure;Samples;Min_cycle;Max_cycle;Signal;HPM_P1;HPM_P2
2022/04/13 00:00:35;;;;;;;;;;;18.20;99.90;;;;;;4882582;29;20321;-74
2022/04/13 00:03:02;;;;;;;;;;;18.20;99.90;;;;;;4882421;29;19957;-74
2022/04/13 00:05:29;;;;;;;;;;;18.20;99.90;;;;;;4882473;29;19912;-74
2022/04/13 00:07:56;;;;;;;;;;;18.30;99.90;;;;;;4882534;29;19924;-74
2022/04/13 00:10:23;;;;;;;;;;;18.20;99.90;;;;;;4882506;29;19915;-74
2022/04/13 00:12:49;;;;;;;;;;;18.20;99.90;;;;;;4881878;29;20008;-74
2022/04/13 00:15:16;;;;;;;;;;;18.20;99.90;;;;;;4881403;29;19959;-74
2022/04/13 00:17:43;;;;;;;;;;;18.30;99.90;;;;;;4881171;29;19947;-74
2022/04/13 00:20:10;;;;;;;;;;;18.40;99.90;;;;;;4880600;29;19920;-75
2022/04/13 00:22:36;;;;;;;;;;;18.70;99.90;;;;;;4881837;29;19979;-75
2022/04/13 00:25:03;;;;;;;;;;;18.70;99.90;;;;;;4881472;29;19947;-74
2022/04/13 00:27:30;;;;;;;;;;;18.80;99.90;;;;;;4881041;29;20403;-74
2022/04/13 00:29:56;;;;;;;;;;;18.80;99.90;;;;;;4882316;29;19911;-74
2022/04/13 00:32:23;;;;;;;;;;;18.90;99.90;;;;;;4880285;29;19947;-74
2022/04/13 00:34:50;;;;;;;;;;;18.90;99.90;;;;;;4881706;29;19919;-74
2022/04/13 00:37:16;;;;;;;;;;;19.10;99.90;;;;;;4882052;29;20249;-74
2022/04/13 00:39:43;;;;;;;;;;;19.10;99.90;;;;;;4881806;29;19920;-74
2022/04/13 00:42:10;;;;;;;;;;;19.00;99.90;;;;;;4882086;29;19956;-74
2022/04/13 00:44:36;;;;;;;;;;;18.90;99.90;;;;;;4881169;29;19919;-74
2022/04/13 00:47:08;;;;;;;;;;;18.90;99.90;;;;;;4881405;29;19939;-74
2022/04/13 00:49:35;;;;;;;;;;;18.90;99.90;;;;;;4881716;29;20256;-74
2022/04/13 00:52:04;;;;;;;;;;;19.00;99.90;;;;;;4881899;29;19971;-74
2022/04/13 00:54:35;;;;;;;;;;;19.00;99.90;;;;;;4881769;29;19919;-74
2022/04/13 00:57:11;;;;;;;;;;;19.00;99.90;;;;;;4880365;29;19998;-74
2022/04/13 00:59:39;;;;;;;;;;;19.00;99.90;;;;;;4881022;29;19926;-74
2022/04/13 01:02:08;;;;;;;;;;;18.90;99.90;;;;;;4881189;29;19912;-73
2022/04/13 01:04:35;;;;;;;;;;;19.00;99.90;;;;;;4881669;29;20434;-74
2022/04/13 01:07:03;;;;;;;;;;;18.90;99.90;;;;;;4881563;29;19964;-74
2022/04/13 01:09:30;;;;;;;;;;;18.90;99.90;;;;;;4881209;29;19912;-74
2022/04/13 01:11:57;;;;;;;;;;;19.00;99.90;;;;;;4881175;29;20423;-74
2022/04/13 01:14:23;;;;;;;;;;;19.10;99.90;;;;;;4881436;29;19983;-74
2022/04/13 01:16:50;;;;;;;;;;;19.10;99.90;;;;;;4881403;29;19959;-74
2022/04/13 01:19:18;;;;;;;;;;;19.00;99.90;;;;;;4880940;29;19926;-74
2022/04/13 01:21:52;;;;;;;;;;;18.90;99.90;;;;;;4880850;29;19912;-74
2022/04/13 01:24:20;;;;;;;;;;;18.80;99.90;;;;;;4881270;29;20364;-74
2022/04/13 01:26:47;;;;;;;;;;;18.70;99.90;;;;;;4881202;29;20366;-74
2022/04/13 01:29:13;;;;;;;;;;;18.70;99.90;;;;;;4879082;29;19911;-74
2022/04/13 01:31:41;;;;;;;;;;;18.70;99.90;;;;;;4878691;29;19919;-74
2022/04/13 01:34:07;;;;;;;;;;;18.70;99.90;;;;;;4878739;29;20431;-74
2022/04/13 01:36:34;;;;;;;;;;;18.50;99.90;;;;;;4879174;29;19912;-75
2022/04/13 01:39:02;;;;;;;;;;;18.60;99.90;;;;;;4878611;29;19955;-74
2022/04/13 01:41:28;;;;;;;;;;;18.70;99.90;;;;;;4879561;29;19951;-74
2022/04/13 01:43:56;;;;;;;;;;;18.60;99.90;;;;;;4880538;29;19912;-74
2022/04/13 01:46:22;;;;;;;;;;;18.60;99.90;;;;;;4880935;29;19919;-74
2022/04/13 01:48:49;;;;;;;;;;;18.70;99.90;;;;;;4880645;29;19918;-74
2022/04/13 01:51:17;;;;;;;;;;;18.70;99.90;;;;;;4880944;29;20006;-74
2022/04/13 01:53:44;;;;;;;;;;;18.80;99.90;;;;;;4880213;29;19918;-74
2022/04/13 01:56:10;;;;;;;;;;;18.90;99.90;;;;;;4863723;29;20367;-74
2022/04/13 01:58:37;;;;;;;;;;;19.00;99.90;;;;;;4880575;29;19916;-75
2022/04/13 02:01:04;;;;;;;;;;;19.10;99.90;;;;;;4880333;29;19955;-74
2022/04/13 02:03:30;;;;;;;;;;;19.20;99.90;;;;;;4879749;29;19931;-74
2022/04/13 02:05:57;;;;;;;;;;;19.30;99.90;;;;;;4880343;29;19935;-74
2022/04/13 02:08:24;;;;;;;;;;;19.20;99.90;;;;;;4880432;29;19912;-74
2022/04/13 02:10:51;;;;;;;;;;;19.30;99.90;;;;;;4880333;29;19912;-74
2022/04/13 02:13:24;;;;;;;;;;;19.30;99.90;;;;;;4879435;29;21549;-74
2022/04/13 02:15:51;;;;;;;;;;;19.40;99.90;;;;;;4863306;29;19916;-74
2022/04/13 02:18:18;;;;;;;;;;;19.50;99.90;;;;;;4879853;29;19922;-75
2022/04/13 02:20:44;;;;;;;;;;;19.60;99.90;;;;;;4863407;29;20331;-74
2022/04/13 02:23:11;;;;;;;;;;;19.60;99.90;;;;;;4880150;29;20373;-74
2022/04/13 02:25:38;;;;;;;;;;;19.40;99.90;;;;;;4879908;29;19912;-74
2022/04/13 02:28:05;;;;;;;;;;;19.40;99.90;;;;;;4879926;29;19911;-74
2022/04/13 02:30:32;;;;;;;;;;;19.30;99.90;;;;;;4879899;29;19919;-74
2022/04/13 02:32:59;;;;;;;;;;;19.40;99.90;;;;;;4879795;29;19960;-74
2022/04/13 02:35:25;;;;;;;;;;;19.40;99.90;;;;;;4879997;29;20344;-74
2022/04/13 02:37:52;;;;;;;;;;;19.40;99.90;;;;;;4879753;29;19964;-75
2022/04/13 02:40:19;;;;;;;;;;;19.30;99.90;;;;;;4879857;29;19967;-74
2022/04/13 02:42:46;;;;;;;;;;;19.20;99.90;;;;;;4879817;29;19912;-74
2022/04/13 02:45:13;;;;;;;;;;;19.30;99.90;;;;;;4879848;29;19918;-75
2022/04/13 02:47:40;;;;;;;;;;;19.40;99.90;;;;;;4878958;29;20000;-74
2022/04/13 02:50:07;;;;;;;;;;;19.40;99.90;;;;;;4879804;29;19912;-74
2022/04/13 02:52:34;;;;;;;;;;;19.40;99.90;;;;;;4879706;29;20279;-75
2022/04/13 02:55:01;;;;;;;;;;;19.50;99.90;;;;;;4879615;29;19912;-74
2022/04/13 02:57:27;;;;;;;;;;;19.40;99.90;;;;;;4879514;29;19912;-74
2022/04/13 02:59:54;;;;;;;;;;;19.20;99.90;;;;;;4879228;29;20279;-74
2022/04/13 03:02:20;;;;;;;;;;;19.20;99.90;;;;;;4879103;29;19931;-74
2022/04/13 03:04:48;;;;;;;;;;;19.20;99.90;;;;;;4879632;29;19976;-74
2022/04/13 03:07:15;;;;;;;;;;;19.30;99.90;;;;;;4879541;29;20367;-74
2022/04/13 03:09:42;;;;;;;;;;;19.20;99.90;;;;;;4878839;29;19915;-74
2022/04/13 03:12:09;;;;;;;;;;;19.20;99.90;;;;;;4879297;29;19911;-74
2022/04/13 03:14:36;;;;;;;;;;;19.20;99.90;;;;;;4879306;29;19912;-74
2022/04/13 03:17:02;;;;;;;;;;;19.10;99.90;;;;;;4879106;29;19920;-74
2022/04/13 03:19:29;;;;;;;;;;;19.20;99.90;;;;;;4879417;29;20372;-74
2022/04/13 03:21:56;;;;;;;;;;;19.30;99.90;;;;;;4879493;29;19912;-74
2022/04/13 03:24:22;;;;;;;;;;;19.30;99.90;;;;;;4879326;29;19974;-74
2022/04/13 03:26:49;;;;;;;;;;;19.40;99.90;;;;;;4879358;29;19975;-74
2022/04/13 03:29:16;;;;;;;;;;;19.50;99.90;;;;;;4879475;29;19919;-74
2022/04/13 03:31:43;;;;;;;;;;;19.70;99.90;;;;;;4878875;29;19955;-74
2022/04/13 03:34:09;;;;;;;;;;;19.70;99.90;;;;;;4879014;29;19912;-74
2022/04/13 03:36:42;;;;;;;;;;;19.70;99.90;;;;;;4879346;29;20050;-74
2022/04/13 03:39:09;;;;;;;;;;;19.60;99.90;;;;;;4879317;29;19920;-74
2022/04/13 03:41:36;;;;;;;;;;;19.60;99.90;;;;;;4879169;29;19915;-74
2022/04/13 03:44:03;;;;;;;;;;;19.50;99.90;;;;;;4879021;29;19916;-74
2022/04/13 03:46:30;;;;;;;;;;;19.30;99.90;;;;;;4878759;29;19919;-74
2022/04/13 03:48:56;;;;;;;;;;;19.40;99.90;;;;;;4879206;29;20351;-74
2022/04/13 03:51:23;;;;;;;;;;;19.50;99.90;;;;;;4879268;29;19972;-73
2022/04/13 03:53:50;;;;;;;;;;;19.40;99.90;;;;;;4878563;29;20423;-74
2022/04/13 03:56:17;;;;;;;;;;;19.40;99.90;;;;;;4879038;29;19919;-73
2022/04/13 03:58:43;;;;;;;;;;;19.40;99.90;;;;;;4879010;29;20374;-74
2022/04/13 04:01:10;;;;;;;;;;;19.30;99.90;;;;;;4879261;29;19948;-74
2022/04/13 04:03:37;;;;;;;;;;;19.30;99.90;;;;;;4878693;29;19924;-73
2022/04/13 04:06:05;;;;;;;;;;;19.10;99.90;;;;;;4879016;29;19912;-74
2022/04/13 04:08:35;;;;;;;;;;;19.10;99.90;;;;;;4879353;29;20374;-73
2022/04/13 04:11:02;;;;;;;;;;;19.10;99.90;;;;;;4879039;29;19912;-74
2022/04/13 04:13:29;;;;;;;;;;;19.10;99.90;;;;;;4879077;29;19919;-74
2022/04/13 04:15:55;;;;;;;;;;;19.00;99.90;;;;;;4878913;29;20038;-74
2022/04/13 04:18:22;;;;;;;;;;;18.90;99.90;;;;;;4878854;29;20411;-74
2022/04/13 04:20:48;;;;;;;;;;;18.90;99.90;;;;;;4875191;29;19927;-74
2022/04/13 04:23:15;;;;;;;;;;;18.90;99.90;;;;;;4869859;29;19960;-74
2022/04/13 04:25:42;;;;;;;;;;;18.90;99.90;;;;;;4862551;29;20404;-74
2022/04/13 04:28:11;;;;;;;;;;;18.80;99.90;;;;;;4874532;29;20510;-74
2022/04/13 04:30:39;;;;;;;;;;;18.80;99.90;;;;;;4881900;29;19931;-74
2022/04/13 04:33:06;;;;;;;;;;;18.80;99.90;;;;;;4881892;29;20356;-74
2022/04/13 04:35:33;;;;;;;;;;;18.80;99.90;;;;;;4882024;29;19916;-74
2022/04/13 04:38:00;;;;;;;;;;;18.70;99.90;;;;;;4882190;29;19911;-74
2022/04/13 04:40:26;;;;;;;;;;;18.70;99.90;;;;;;4865163;29;19927;-74
2022/04/13 04:42:54;;;;;;;;;;;18.80;99.90;;;;;;4881691;29;19919;-74
2022/04/13 04:45:21;;;;;;;;;;;18.90;99.90;;;;;;4881522;29;19912;-73
2022/04/13 04:47:49;;;;;;;;;;;18.90;99.90;;;;;;4864798;29;19919;-73
2022/04/13 04:50:19;;;;;;;;;;;18.90;99.90;;;;;;4881781;29;19967;-74
2022/04/13 04:52:47;;;;;;;;;;;18.90;99.90;;;;;;4881714;29;19971;-74
2022/04/13 04:55:16;;;;;;;;;;;18.90;99.90;;;;;;4881581;29;20382;-74
2022/04/13 04:57:43;;;;;;;;;;;19.00;99.90;;;;;;4881353;29;19991;-74
2022/04/13 05:00:11;;;;;;;;;;;19.10;99.90;;;;;;4881437;29;19944;-74
2022/04/13 05:02:39;;;;;;;;;;;19.20;99.90;;;;;;4881397;29;20391;-74
2022/04/13 05:05:06;;;;;;;;;;;19.10;99.90;;;;;;4881406;29;19912;-74
2022/04/13 05:07:33;;;;;;;;;;;18.80;99.90;;;;;;4881104;29;20003;-74
2022/04/13 05:10:00;;;;;;;;;;;18.80;99.90;;;;;;4881370;29;20364;-74
2022/04/13 05:12:27;;;;;;;;;;;18.90;99.90;;;;;;4881605;29;19919;-74
2022/04/13 05:14:55;;;;;;;;;;;18.90;99.90;;;;;;4881345;29;19918;-74
2022/04/13 05:17:22;;;;;;;;;;;19.00;99.90;;;;;;4881118;29;19922;-74
2022/04/13 05:19:49;;;;;;;;;;;19.00;99.90;;;;;;4881008;29;19976;-74
2022/04/13 05:22:16;;;;;;;;;;;18.90;99.90;;;;;;4881351;29;19912;-74
2022/04/13 05:24:43;;;;;;;;;;;18.80;99.90;;;;;;4881335;29;20352;-74
2022/04/13 05:27:09;;;;;;;;;;;18.80;99.90;;;;;;4881249;29;20109;-74
2022/04/13 05:29:36;;;;;;;;;;;18.80;99.90;;;;;;4881043;29;19918;-74
2022/04/13 05:32:03;;;;;;;;;;;18.70;99.90;;;;;;4880463;29;20363;-74
2022/04/13 05:34:30;;;;;;;;;;;18.50;99.90;;;;;;4880930;29;20332;-74
2022/04/13 05:36:56;;;;;;;;;;;18.50;99.90;;;;;;4881187;29;19912;-74
2022/04/13 05:39:23;;;;;;;;;;;18.60;99.90;;;;;;4880822;29;19924;-74
2022/04/13 05:41:49;;;;;;;;;;;18.50;99.90;;;;;;4880600;29;20431;-74
2022/04/13 05:44:16;;;;;;;;;;;18.50;99.90;;;;;;4880688;29;19912;-74
2022/04/13 05:46:43;;;;;;;;;;;18.50;99.90;;;;;;4880463;29;20291;-74
2022/04/13 05:49:09;;;;;;;;;;;18.40;99.90;;;;;;4880874;29;20320;-74
2022/04/13 05:51:36;;;;;;;;;;;18.30;99.90;;;;;;4880715;29;20256;-74
2022/04/13 05:54:03;;;;;;;;;;;18.20;99.90;;;;;;4864044;29;19915;-74
2022/04/13 05:56:30;;;;;;;;;;;18.00;99.90;;;;;;4880533;29;19912;-74
2022/04/13 05:58:57;;;;;;;;;;;17.90;99.90;;;;;;4880396;29;19923;-74
2022/04/13 06:01:23;;;;;;;;;;;17.70;99.90;;;;;;4880414;29;19922;-74
2022/04/13 06:03:50;;;;;;;;;;;17.60;99.90;;;;;;4880228;29;19951;-74
2022/04/13 06:06:16;;;;;;;;;;;17.50;99.90;;;;;;4880489;29;19912;-73
2022/04/13 06:08:43;;;;;;;;;;;17.40;99.90;;;;;;4863708;29;19981;-74
2022/04/13 06:11:10;;;;;;;;;;;17.20;99.90;;;;;;4880583;29;19959;-73
2022/04/13 06:13:36;;;;;;;;;;;17.20;99.90;;;;;;4880277;29;20348;-74
2022/04/13 06:16:03;;;;;;;;;;;17.20;99.90;;;;;;4879957;29;20348;-73
2022/04/13 06:18:30;;;;;;;;;;;17.20;99.90;;;;;;4880109;29;20363;-74
2022/04/13 06:20:56;;;;;;;;;;;17.00;99.90;;;;;;4880142;29;20272;-74
2022/04/13 06:23:23;;;;;;;;;;;16.70;99.90;;;;;;4880125;29;19912;-74
2022/04/13 06:25:50;;;;;;;;;;;16.70;99.90;;;;;;4880015;29;19919;-75
2022/04/13 06:28:16;;;;;;;;;;;16.80;99.90;;;;;;4880149;29;19912;-75
2022/04/13 06:30:43;;;;;;;;;;;16.90;99.90;;;;;;4879936;29;19967;-74
2022/04/13 06:33:10;;;;;;;;;;;17.10;99.90;;;;;;4880180;29;19940;-74
2022/04/13 06:35:37;;;;;;;;;;;17.10;99.90;;;;;;4879872;29;19995;-73
2022/04/13 06:38:03;;;;;;;;;;;17.10;99.90;;;;;;4879826;29;19912;-76
2022/04/13 06:40:30;;;;;;;;;;;17.10;99.90;;;;;;4879944;29;19920;-76
2022/04/13 06:42:57;;;;;;;;;;;17.20;99.90;;;;;;4878979;29;19998;-76
2022/04/13 06:45:23;;;;;;;;;;;17.20;99.90;;;;;;4879844;29;19918;-76
2022/04/13 06:47:50;;;;;;;;;;;17.20;99.90;;;;;;4879744;29;19920;-76
2022/04/13 06:50:17;;;;;;;;;;;17.10;99.90;;;;;;4879708;29;19919;-74
2022/04/13 06:52:44;;;;;;;;;;;17.10;99.90;;;;;;4877022;29;19916;-74
2022/04/13 06:55:11;;;;;;;;;;;17.10;99.90;;;;;;4877571;29;19916;-74
2022/04/13 06:57:38;;;;;;;;;;;17.20;99.90;;;;;;4877206;29;19950;-75
2022/04/13 07:00:06;;;;;;;;;;;17.20;99.90;;;;;;4877381;29;20272;-75
2022/04/13 07:02:34;;;;;;;;;;;17.20;99.90;;;;;;4877152;29;19951;-76
2022/04/13 07:05:00;;;;;;;;;;;17.30;99.90;;;;;;4877256;29;19915;-77
2022/04/13 07:07:27;;;;;;;;;;;17.20;99.90;;;;;;4877449;29;19939;-75
2022/04/13 07:09:54;;;;;;;;;;;17.10;99.90;;;;;;4877408;29;20002;-77
2022/04/13 07:12:20;;;;;;;;;;;17.00;99.90;;;;;;4877481;29;20256;-73
2022/04/13 07:14:47;;;;;;;;;;;16.90;99.90;;;;;;4877423;29;19916;-75
2022/04/13 07:17:14;;;;;;;;;;;16.90;99.90;;;;;;4877011;29;19955;-75
2022/04/13 07:19:40;;;;;;;;;;;16.90;99.90;;;;;;4877145;29;19927;-77
2022/04/13 07:22:07;;;;;;;;;;;16.90;99.90;;;;;;4877203;29;20299;-73
2022/04/13 07:24:34;;;;;;;;;;;16.80;99.90;;;;;;4877502;29;19955;-75
2022/04/13 07:27:01;;;;;;;;;;;16.70;99.90;;;;;;4877288;29;19918;-75
2022/04/13 07:29:28;;;;;;;;;;;16.70;99.90;;;;;;4860487;29;20328;-74
2022/04/13 07:31:54;;;;;;;;;;;16.70;99.90;;;;;;4876551;29;20256;-75
2022/04/13 07:34:22;;;;;;;;;;;16.60;99.90;;;;;;4877314;29;19912;-74
2022/04/13 07:36:48;;;;;;;;;;;16.60;99.90;;;;;;4877077;29;20010;-76
2022/04/13 07:39:15;;;;;;;;;;;16.60;99.90;;;;;;4877145;29;19916;-76
2022/04/13 07:41:42;;;;;;;;;;;16.60;99.90;;;;;;4876919;29;19927;-74
2022/04/13 07:44:08;;;;;;;;;;;16.50;99.90;;;;;;4876923;29;20391;-74
2022/04/13 07:46:35;;;;;;;;;;;16.50;99.90;;;;;;4860082;29;19916;-74
2022/04/13 07:49:02;;;;;;;;;;;16.60;99.90;;;;;;4877232;29;19912;-75
2022/04/13 07:51:28;;;;;;;;;;;16.40;99.90;;;;;;4876997;29;19919;-75
2022/04/13 07:53:55;;;;;;;;;;;16.40;99.90;;;;;;4876797;29;19912;-75
2022/04/13 07:56:22;;;;;;;;;;;16.40;99.90;;;;;;4880345;29;20363;-74
2022/04/13 07:58:49;;;;;;;;;;;16.40;99.90;;;;;;4880507;29;19919;-74
2022/04/13 08:01:15;;;;;;;;;;;16.40;99.90;;;;;;4880278;29;19912;-75
2022/04/13 08:03:42;;;;;;;;;;;16.50;99.90;;;;;;4880465;29;19931;-75
2022/04/13 08:06:11;;;;;;;;;;;16.50;99.90;;;;;;4880722;29;19916;-75
2022/04/13 08:08:38;;;;;;;;;;;16.50;99.90;;;;;;4880685;29;19911;-75
2022/04/13 08:11:05;;;;;;;;;;;16.50;99.90;;;;;;4880329;29;19919;-75
2022/04/13 08:13:33;;;;;;;;;;;16.50;99.90;;;;;;4880217;29;19931;-75
2022/04/13 08:16:03;;;;;;;;;;;16.50;99.90;;;;;;4879826;29;20018;-77
2022/04/13 08:18:29;;;;;;;;;;;16.50;99.90;;;;;;4880144;29;19955;-77
2022/04/13 08:20:56;;;;;;;;;;;16.60;99.90;;;;;;4879237;29;19923;-74
2022/04/13 08:23:22;;;;;;;;;;;16.60;99.90;;;;;;4878035;29;20363;-76
2022/04/13 08:25:49;;;;;;;;;;;16.60;99.90;;;;;;4878301;29;19919;-74
2022/04/13 08:28:16;;;;;;;;;;;16.60;99.90;;;;;;4878619;29;19934;-73
2022/04/13 08:30:42;;;;;;;;;;;16.60;99.90;;;;;;4876941;29;19919;-73
2022/04/13 08:33:09;;;;;;;;;;;16.70;99.90;;;;;;4859762;29;20270;-75
2022/04/13 08:35:36;;;;;;;;;;;16.80;99.90;;;;;;4859240;29;20272;-76
2022/04/13 08:38:02;;;;;;;;;;;16.80;99.90;;;;;;4861166;29;19912;-74
2022/04/13 08:40:32;;;;;;;;;;;16.80;99.90;;;;;;4861393;29;19957;-74
2022/04/13 08:43:14;;;;;;;;;;;16.80;99.90;;;;;;4861255;29;19940;-76
2022/04/13 08:45:45;;;;;;;;;;;16.70;99.90;;;;;;4861158;29;20010;-76
2022/04/13 08:48:12;;;;;;;;;;;16.70;99.90;;;;;;4860537;29;19959;-74
2022/04/13 08:50:42;;;;;;;;;;;16.60;99.90;;;;;;4860925;29;19912;-76
2022/04/13 08:53:12;;;;;;;;;;;16.60;99.90;;;;;;4861152;29;19948;-77
2022/04/13 08:55:41;;;;;;;;;;;16.60;99.90;;;;;;4860789;29;19912;-77
2022/04/13 08:58:16;;;;;;;;;;;16.50;99.90;;;;;;4861093;29;20378;-76
2022/04/13 09:00:46;;;;;;;;;;;16.60;99.90;;;;;;4860862;29;19935;-75
2022/04/13 09:03:27;;;;;;;;;;;16.60;99.90;;;;;;4859174;29;20303;-75
2022/04/13 09:05:57;;;;;;;;;;;16.60;99.90;;;;;;4861128;29;20344;-75
2022/04/13 09:08:29;;;;;;;;;;;16.50;99.90;;;;;;4863097;29;19912;-76
2022/04/13 09:10:56;;;;;;;;;;;16.50;99.90;;;;;;4863082;29;20287;-76
2022/04/13 09:13:26;;;;;;;;;;;16.40;99.90;;;;;;4862778;29;20272;-75
2022/04/13 09:15:53;;;;;;;;;;;16.50;99.90;;;;;;4862141;29;19932;-76
2022/04/13 09:18:19;;;;;;;;;;;16.60;99.90;;;;;;4862558;29;20293;-75
2022/04/13 09:20:46;;;;;;;;;;;16.70;99.90;;;;;;4862592;29;19920;-77
2022/04/13 09:23:14;;;;;;;;;;;16.60;99.90;;;;;;4846305;29;19923;-77
2022/04/13 09:25:40;;;;;;;;;;;16.50;99.90;;;;;;4867302;29;19962;-77
2022/04/13 09:28:07;;;;;;;;;;;16.50;99.90;;;;;;4880605;29;19915;-74
2022/04/13 09:30:34;;;;;;;;;;;16.50;99.90;;;;;;4880901;29;19935;-75
2022/04/13 09:33:02;;;;;;;;;;;16.50;99.90;;;;;;4880549;29;19937;-76
2022/04/13 09:35:32;;;;;;;;;;;16.50;99.90;;;;;;4881107;29;20275;-77
2022/04/13 09:38:09;;;;;;;;;;;16.50;99.90;;;;;;4864220;29;19999;-74
2022/04/13 09:40:35;;;;;;;;;;;16.50;99.90;;;;;;4880738;29;19920;-74
2022/04/13 09:43:06;;;;;;;;;;;16.50;99.90;;;;;;4880786;29;20411;-75
2022/04/13 09:45:33;;;;;;;;;;;16.50;99.90;;;;;;4880011;29;19935;-75
2022/04/13 09:48:03;;;;;;;;;;;16.50;99.90;;;;;;4880879;29;20282;-73
2022/04/13 09:50:30;;;;;;;;;;;16.50;99.90;;;;;;4880539;29;19915;-73
2022/04/13 09:53:03;;;;;;;;;;;16.50;99.90;;;;;;4880774;29;19912;-73
2022/04/13 09:55:30;;;;;;;;;;;16.50;99.90;;;;;;4880739;29;19912;-73
2022/04/13 09:58:06;;;;;;;;;;;16.50;99.90;;;;;;4880751;29;19919;-74
2022/04/13 10:01:06;;;;;;;;;;;;;;;;;;;;;
2022/04/13 10:03:33;;;;;;;;;;;16.40;99.90;;;;;;4866132;29;19930;-74
2022/04/13 10:06:02;;;;;;;;;;;16.40;99.90;;;;;;4880543;29;19916;-73
2022/04/13 10:08:30;;;;;;;;;;;16.60;99.90;;;;;;4880431;29;19912;-72
2022/04/13 10:10:57;;;;;;;;;;;16.70;99.90;;;;;;4880519;29;20364;-73
2022/04/13 10:13:33;;;;;;;;;;;16.70;99.90;;;;;;4880550;29;19918;-73
2022/04/13 10:16:01;;;;;;;;;;;16.70;99.90;;;;;;4880450;29;20014;-73
2022/04/13 10:18:28;;;;;;;;;;;16.70;99.90;;;;;;4880487;29;19967;-73
2022/04/13 10:20:55;;;;;;;;;;;16.70;99.90;;;;;;4880334;29;19920;-72
2022/04/13 10:23:21;;;;;;;;;;;16.60;99.90;;;;;;4880256;29;19929;-73
2022/04/13 10:25:48;;;;;;;;;;;16.50;99.90;;;;;;4880198;29;19919;-73
2022/04/13 10:28:26;;;;;;;;;;;16.60;99.90;;;;;;4880163;29;19912;-74
2022/04/13 10:30:52;;;;;;;;;;;16.60;99.90;;;;;;4880105;29;19943;-73
2022/04/13 10:33:19;;;;;;;;;;;16.40;99.90;;;;;;4880184;29;19912;-73
2022/04/13 10:35:46;;;;;;;;;;;16.40;99.90;;;;;;4880010;29;19918;-73
2022/04/13 10:38:12;;;;;;;;;;;16.40;99.90;;;;;;4879916;29;19938;-73
2022/04/13 10:40:41;;;;;;;;;;;16.40;99.90;;;;;;4879945;29;19982;-73
2022/04/13 10:43:09;;;;;;;;;;;16.40;99.90;;;;;;4880033;29;19912;-73
2022/04/13 10:45:38;;;;;;;;;;;16.40;99.90;;;;;;4879743;29;19935;-74
2022/04/13 10:48:06;;;;;;;;;;;16.40;99.90;;;;;;4879992;29;19912;-73
2022/04/13 10:50:32;;;;;;;;;;;16.40;99.90;;;;;;4879971;29;19915;-74
2022/04/13 10:52:59;;;;;;;;;;;16.30;99.90;;;;;;4879757;29;19912;-73
2022/04/13 10:55:30;;;;;;;;;;;16.40;99.90;;;;;;4879813;29;19916;-74
2022/04/13 10:57:59;;;;;;;;;;;16.40;99.90;;;;;;4879906;29;19995;-74
2022/04/13 11:00:27;;;;;;;;;;;16.50;99.90;;;;;;4879577;29;19926;-75
2022/04/13 11:02:56;;;;;;;;;;;16.50;99.90;;;;;;4879603;29;19997;-76
2022/04/13 11:05:25;;;;;;;;;;;16.60;99.90;;;;;;4879786;29;20283;-74
2022/04/13 11:08:14;;;;;;;;;;;16.50;99.90;;;;;;4879465;29;19999;-76
2022/04/13 11:10:42;;;;;;;;;;;16.40;99.90;;;;;;4872361;29;19919;-76
2022/04/13 11:13:08;;;;;;;;;;;16.30;99.90;;;;;;4879435;29;19918;-75
2022/04/13 11:15:45;;;;;;;;;;;16.30;99.90;;;;;;4879105;29;19912;-74
2022/04/13 11:18:13;;;;;;;;;;;16.30;99.90;;;;;;4862005;29;20472;-73
2022/04/13 11:21:00;;;;;;;;;;;16.30;99.90;;;;;;4860954;29;20015;-73
2022/04/13 11:23:49;;;;;;;;;;;16.30;99.90;;;;;;4857267;29;20383;-74
2022/04/13 11:26:48;;;;;;;;;;;16.30;99.90;;;;;;4860278;29;19912;-73
2022/04/13 11:29:18;;;;;;;;;;;16.20;99.90;;;;;;4861141;29;20367;-74
2022/04/13 11:32:05;;;;;;;;;;;16.30;99.90;;;;;;4864539;29;20359;-74
2022/04/13 11:34:32;;;;;;;;;;;16.20;99.90;;;;;;4864726;29;19918;-74
2022/04/13 11:36:59;;;;;;;;;;;16.20;99.90;;;;;;4864315;29;19919;-73
2022/04/13 11:39:45;;;;;;;;;;;16.20;99.90;;;;;;4864344;29;19916;-73
2022/04/13 11:42:32;;;;;;;;;;;16.10;99.90;;;;;;4864075;29;19916;-73
2022/04/13 11:45:03;;;;;;;;;;;16.10;99.90;;;;;;4860543;29;19928;-73
2022/04/13 11:47:47;;;;;;;;;;;16.10;99.90;;;;;;4864301;29;20019;-73
2022/04/13 11:50:14;;;;;;;;;;;16.00;99.90;;;;;;4864428;29;20394;-75
2022/04/13 11:52:50;;;;;;;;;;;16.00;99.90;;;;;;4864328;29;20011;-73
2022/04/13 11:55:17;;;;;;;;;;;16.00;99.90;;;;;;4864231;29;19912;-73
2022/04/13 11:58:07;;;;;;;;;;;16.00;99.90;;;;;;4863501;29;20003;-72
2022/04/13 12:00:49;;;;;;;;;;;15.90;99.90;;;;;;4861169;29;20336;-73
2022/04/13 12:03:39;;;;;;;;;;;15.90;99.90;;;;;;4862818;29;20405;-73
2022/04/13 12:06:10;;;;;;;;;;;15.90;99.90;;;;;;4860783;29;19976;-73
2022/04/13 12:08:40;;;;;;;;;;;15.80;99.90;;;;;;4864025;29;19952;-73
2022/04/13 12:11:14;;;;;;;;;;;15.90;99.90;;;;;;4863669;29;19912;-72
2022/04/13 12:13:50;;;;;;;;;;;15.90;99.90;;;;;;4863718;29;19916;-73
2022/04/13 12:16:19;;;;;;;;;;;15.90;99.90;;;;;;4863954;29;19912;-73
2022/04/13 12:18:45;;;;;;;;;;;16.00;99.90;;;;;;4862615;29;20007;-73
2022/04/13 12:21:14;;;;;;;;;;;16.00;99.90;;;;;;4863835;29;20066;-73
2022/04/13 12:23:42;;;;;;;;;;;16.00;99.90;;;;;;4863501;29;19937;-74
2022/04/13 12:26:09;;;;;;;;;;;16.00;99.90;;;;;;4863211;29;19912;-73
2022/04/13 12:28:36;;;;;;;;;;;15.90;99.90;;;;;;4863675;29;20356;-72
2022/04/13 12:31:13;;;;;;;;;;;15.90;99.90;;;;;;4863680;29;19991;-72
2022/04/13 12:33:40;;;;;;;;;;;15.80;99.90;;;;;;4863491;29;19919;-73
2022/04/13 12:36:08;;;;;;;;;;;15.90;99.90;;;;;;4863682;29;19912;-73
2022/04/13 12:38:36;;;;;;;;;;;15.90;99.90;;;;;;4863533;29;19912;-73
2022/04/13 12:41:03;;;;;;;;;;;15.90;99.90;;;;;;4861778;29;19931;-74
2022/04/13 12:43:31;;;;;;;;;;;15.90;99.90;;;;;;4863132;29;19912;-73
2022/04/13 12:45:58;;;;;;;;;;;15.90;99.90;;;;;;4863524;29;19912;-73
2022/04/13 12:48:28;;;;;;;;;;;15.90;99.90;;;;;;4863478;29;19919;-73
2022/04/13 12:50:55;;;;;;;;;;;15.90;99.90;;;;;;4863463;29;20241;-75
2022/04/13 12:53:22;;;;;;;;;;;15.90;99.90;;;;;;4863326;29;20276;-73
2022/04/13 12:56:06;;;;;;;;;;;15.80;99.90;;;;;;4862584;29;19916;-73
2022/04/13 12:58:36;;;;;;;;;;;15.80;99.90;;;;;;4863094;29;19947;-73
2022/04/13 13:01:03;;;;;;;;;;;15.80;99.90;;;;;;4863161;29;20283;-73
2022/04/13 13:03:40;;;;;;;;;;;15.80;99.90;;;;;;4863067;29;19957;-73
2022/04/13 13:06:08;;;;;;;;;;;15.80;99.90;;;;;;4863229;29;20321;-74
2022/04/13 13:08:36;;;;;;;;;;;15.80;99.90;;;;;;4862797;29;19912;-73
2022/04/13 13:11:02;;;;;;;;;;;15.70;99.90;;;;;;4862998;29;19938;-74
2022/04/13 13:13:36;;;;;;;;;;;15.80;99.90;;;;;;4862981;29;19912;-74
2022/04/13 13:16:03;;;;;;;;;;;15.80;99.90;;;;;;4863080;29;19916;-74
2022/04/13 13:18:30;;;;;;;;;;;15.80;99.90;;;;;;4863034;29;19999;-74
2022/04/13 13:20:57;;;;;;;;;;;15.80;99.90;;;;;;4862774;29;19921;-74
2022/04/13 13:23:25;;;;;;;;;;;15.80;99.90;;;;;;4862764;29;19913;-74
2022/04/13 13:25:52;;;;;;;;;;;15.90;99.90;;;;;;4862721;29;20000;-73
2022/04/13 13:28:23;;;;;;;;;;;15.90;99.90;;;;;;4862755;29;19913;-74
2022/04/13 13:30:50;;;;;;;;;;;15.90;99.90;;;;;;4862776;29;19912;-74
2022/04/13 13:33:19;;;;;;;;;;;15.90;99.90;;;;;;4862809;29;19935;-74
2022/04/13 13:35:45;;;;;;;;;;;15.90;99.90;;;;;;4862434;29;19955;-75
2022/04/13 13:38:16;;;;;;;;;;;15.90;99.90;;;;;;4862679;29;19916;-74
2022/04/13 13:40:45;;;;;;;;;;;15.80;99.90;;;;;;4862480;29;19924;-74
2022/04/13 13:43:35;;;;;;;;;;;15.90;99.90;;;;;;4862350;29;19916;-74
2022/04/13 13:46:12;;;;;;;;;;;15.80;99.90;;;;;;4862359;29;19968;-74
2022/04/13 13:48:39;;;;;;;;;;;15.80;99.90;;;;;;4862417;29;19916;-73
2022/04/13 13:51:07;;;;;;;;;;;15.70;99.90;;;;;;4862214;29;19940;-74
2022/04/13 13:53:34;;;;;;;;;;;15.70;99.90;;;;;;4861831;29;19960;-74
2022/04/13 13:56:01;;;;;;;;;;;15.70;99.90;;;;;;4862254;29;20003;-73
2022/04/13 13:58:27;;;;;;;;;;;15.60;99.90;;;;;;4862053;29;20412;-74
2022/04/13 14:00:54;;;;;;;;;;;15.60;99.90;;;;;;4862028;29;20016;-73
2022/04/13 14:03:21;;;;;;;;;;;15.60;99.90;;;;;;4860796;29;20336;-74
2022/04/13 14:05:48;;;;;;;;;;;15.60;99.90;;;;;;4861933;29;20391;-74
2022/04/13 14:08:15;;;;;;;;;;;15.70;99.90;;;;;;4862079;29;19912;-74
2022/04/13 14:10:42;;;;;;;;;;;15.70;99.90;;;;;;4862142;29;19912;-74
2022/04/13 14:13:10;;;;;;;;;;;15.70;99.90;;;;;;4861825;29;19912;-74
2022/04/13 14:15:36;;;;;;;;;;;15.80;99.90;;;;;;4861739;29;19952;-74
2022/04/13 14:18:04;;;;;;;;;;;15.80;99.90;;;;;;4862088;29;19990;-74
2022/04/13 14:20:31;;;;;;;;;;;15.80;99.90;;;;;;4861806;29;20014;-73
2022/04/13 14:22:57;;;;;;;;;;;15.80;99.90;;;;;;4860538;29;20060;-74
2022/04/13 14:25:25;;;;;;;;;;;15.80;99.90;;;;;;4861757;29;19939;-74